createdAt,value
2018-07-19T00:00:06.528Z,2.30
2018-07-19T00:02:34.886Z,2.50
2018-07-19T00:05:03.240Z,2.53
2018-07-19T00:07:31.591Z,2.40
2018-07-19T00:09:59.915Z,2.60
2018-07-19T00:12:28.010Z,2.50
2018-07-19T00:14:56.351Z,2.60
2018-07-19T00:17:24.730Z,2.40
2018-07-19T00:19:53.068Z,2.47
2018-07-19T00:22:21.422Z,2.70
2018-07-19T00:24:49.764Z,2.33
2018-07-19T00:27:18.123Z,2.80
2018-07-19T00:29:46.478Z,2.97
2018-07-19T00:32:14.853Z,2.77
2018-07-19T00:34:43.180Z,3.10
2018-07-19T00:37:11.561Z,2.93
2018-07-19T00:39:39.901Z,2.93
2018-07-19T00:42:08.771Z,2.63
2018-07-19T00:44:37.103Z,2.80
2018-07-19T00:47:05.648Z,2.70
2018-07-19T00:49:33.990Z,2.90
2018-07-19T00:52:02.376Z,3.10
2018-07-19T00:54:30.430Z,2.83
2018-07-19T00:56:58.815Z,2.90
2018-07-19T00:59:26.888Z,2.93
2018-07-19T01:01:54.987Z,2.83
2018-07-19T01:04:23.381Z,3.00
2018-07-19T01:06:51.779Z,2.90
2018-07-19T01:09:20.115Z,2.97
2018-07-19T01:11:48.452Z,2.60
2018-07-19T01:14:16.800Z,2.87
2018-07-19T01:16:45.152Z,2.83
2018-07-19T01:19:13.494Z,2.97
2018-07-19T01:21:41.883Z,2.90
2018-07-19T01:24:10.270Z,3.03
2018-07-19T01:26:38.644Z,3.07
2018-07-19T01:29:07.037Z,3.00
2018-07-19T01:31:36.544Z,3.00
2018-07-19T01:34:04.727Z,3.07
2018-07-19T01:36:33.084Z,3.07
2018-07-19T01:39:01.444Z,2.73
2018-07-19T01:42:41.043Z,2.77
2018-07-19T01:45:10.120Z,2.80
2018-07-19T01:47:38.560Z,3.00
2018-07-19T01:50:07.935Z,2.90
2018-07-19T01:52:36.324Z,3.50
2018-07-19T01:55:05.152Z,3.53
2018-07-19T01:57:33.527Z,3.33
2018-07-19T02:00:01.929Z,2.90
2018-07-19T02:02:30.271Z,2.93
2018-07-19T02:04:58.623Z,2.60
2018-07-19T02:07:26.964Z,3.07
2018-07-19T02:09:55.071Z,3.10
2018-07-19T02:12:23.428Z,2.97
2018-07-19T02:14:51.530Z,3.77
2018-07-19T02:17:19.858Z,3.40
2018-07-19T02:19:48.255Z,3.60
2018-07-19T02:22:16.610Z,3.00
2018-07-19T02:24:45.280Z,3.30
2018-07-19T02:27:13.784Z,3.50
2018-07-19T02:29:42.189Z,3.17
2018-07-19T02:32:10.298Z,3.40
2018-07-19T02:34:38.679Z,3.27
2018-07-19T02:37:07.040Z,3.20
2018-07-19T02:39:35.420Z,3.20
2018-07-19T02:42:03.773Z,3.13
2018-07-19T02:44:32.165Z,2.90
2018-07-19T02:47:00.503Z,3.10
2018-07-19T02:49:28.867Z,3.10
2018-07-19T02:51:57.244Z,3.50
2018-07-19T02:54:25.618Z,3.37
2018-07-19T02:56:53.986Z,3.40
2018-07-19T02:59:22.369Z,3.33
2018-07-19T03:01:50.731Z,3.57
2018-07-19T03:04:19.109Z,3.43
2018-07-19T03:06:47.459Z,3.40
2018-07-19T03:09:15.826Z,3.10
2018-07-19T03:11:44.168Z,3.27
2018-07-19T03:14:12.530Z,3.27
2018-07-19T03:16:40.604Z,3.50
2018-07-19T03:19:08.976Z,3.17
2018-07-19T03:21:37.053Z,3.10
2018-07-19T03:24:05.475Z,3.60
2018-07-19T03:26:33.820Z,3.10
2018-07-19T03:29:02.193Z,3.50
2018-07-19T03:31:30.573Z,3.30
2018-07-19T03:33:58.944Z,3.40
2018-07-19T03:36:27.290Z,3.47
2018-07-19T03:38:55.654Z,3.50
2018-07-19T03:41:23.991Z,3.33
2018-07-19T03:43:52.367Z,3.37
2018-07-19T03:46:20.736Z,3.30
2018-07-19T03:48:49.163Z,3.43
2018-07-19T03:51:17.517Z,3.07
2018-07-19T03:53:45.858Z,3.43
2018-07-19T03:56:14.248Z,3.30
2018-07-19T03:58:42.632Z,3.67
2018-07-19T04:01:10.996Z,3.23
2018-07-19T04:03:39.351Z,3.00
2018-07-19T04:06:07.724Z,3.43
2018-07-19T04:08:36.078Z,3.50
2018-07-19T04:11:04.460Z,3.57
2018-07-19T04:13:32.811Z,3.50
2018-07-19T04:16:01.185Z,3.60
2018-07-19T04:18:29.564Z,3.30
2018-07-19T04:20:57.942Z,3.53
2018-07-19T04:23:26.285Z,3.50
2018-07-19T04:25:54.668Z,2.90
2018-07-19T04:28:23.019Z,3.97
2018-07-19T04:30:51.453Z,3.50
2018-07-19T04:33:19.835Z,3.70
2018-07-19T04:35:48.211Z,3.60
2018-07-19T04:38:16.630Z,3.40
2018-07-19T04:40:44.972Z,3.90
2018-07-19T04:43:13.330Z,3.70
2018-07-19T04:45:41.781Z,4.00
2018-07-19T04:48:10.190Z,3.80
2018-07-19T04:50:38.523Z,4.30
2018-07-19T04:53:06.626Z,4.33
2018-07-19T04:55:34.983Z,4.13
2018-07-19T04:58:03.375Z,4.20
2018-07-19T05:00:31.769Z,4.93
2018-07-19T05:03:00.171Z,4.63
2018-07-19T05:05:28.603Z,5.03
2018-07-19T05:07:56.947Z,5.00
2018-07-19T05:10:25.315Z,4.80
2018-07-19T05:12:53.649Z,5.23
2018-07-19T05:15:21.995Z,5.30
2018-07-19T05:17:50.327Z,5.37
2018-07-19T05:20:18.674Z,4.97
2018-07-19T05:22:47.006Z,5.13
2018-07-19T05:25:15.354Z,5.23
2018-07-19T05:27:43.748Z,5.40
2018-07-19T05:30:12.120Z,5.13
2018-07-19T05:32:40.456Z,5.90
2018-07-19T05:35:08.832Z,5.37
2018-07-19T05:37:37.158Z,5.90
2018-07-19T05:40:05.511Z,6.10
2018-07-19T05:42:33.860Z,7.03
2018-07-19T05:45:02.210Z,6.90
2018-07-19T05:47:30.611Z,5.57
2018-07-19T05:49:58.945Z,6.00
2018-07-19T05:52:27.296Z,6.67
2018-07-19T05:54:55.628Z,5.93
2018-07-19T05:57:24.034Z,6.40
2018-07-19T05:59:52.371Z,6.40
2018-07-19T06:02:20.747Z,6.20
2018-07-19T06:04:49.071Z,5.67
2018-07-19T06:07:17.444Z,5.50
2018-07-19T06:09:45.830Z,5.40
2018-07-19T06:12:14.131Z,5.23
2018-07-19T06:14:42.491Z,5.30
2018-07-19T06:17:11.216Z,5.03
2018-07-19T06:19:39.566Z,5.60
2018-07-19T06:22:07.925Z,5.37
2018-07-19T06:24:36.327Z,4.17
2018-07-19T06:27:04.872Z,3.73
2018-07-19T06:29:33.207Z,3.93
2018-07-19T06:32:01.607Z,3.70
2018-07-19T06:34:29.938Z,4.53
2018-07-19T06:36:58.318Z,4.20
2018-07-19T06:39:26.656Z,4.00
2018-07-19T06:41:55.060Z,4.30
2018-07-19T06:44:23.426Z,4.17
2018-07-19T06:46:51.795Z,3.50
2018-07-19T06:49:20.167Z,3.63
2018-07-19T06:51:48.528Z,3.50
2018-07-19T06:54:16.602Z,3.20
2018-07-19T06:56:44.983Z,3.03
2018-07-19T06:59:13.315Z,3.63
2018-07-19T07:01:41.662Z,3.37
2018-07-19T07:04:10.025Z,3.40
2018-07-19T07:06:38.403Z,3.27
2018-07-19T07:09:08.607Z,2.90
2018-07-19T07:11:37.006Z,2.60
2018-07-19T07:14:05.604Z,2.90
2018-07-19T07:16:33.684Z,2.43
2018-07-19T07:19:02.048Z,2.60
2018-07-19T07:21:30.407Z,2.33
2018-07-19T07:23:58.743Z,2.40
2018-07-19T07:26:27.102Z,2.27
2018-07-19T07:28:55.440Z,2.47
2018-07-19T07:31:23.815Z,2.50
2018-07-19T07:33:51.883Z,2.50
2018-07-19T07:36:20.259Z,2.57
2018-07-19T07:38:48.653Z,2.37
2018-07-19T07:41:16.935Z,2.70
2018-07-19T07:43:45.288Z,2.30
2018-07-19T07:46:13.623Z,2.43
2018-07-19T07:48:41.993Z,2.30
2018-07-19T07:51:10.062Z,2.17
2018-07-19T07:53:38.432Z,2.03
2018-07-19T07:56:06.819Z,2.07
2018-07-19T07:58:35.256Z,2.30
2018-07-19T08:01:03.543Z,2.10
2018-07-19T08:03:31.900Z,2.20
2018-07-19T08:06:00.225Z,2.30
2018-07-19T08:08:28.603Z,2.10
2018-07-19T08:10:56.671Z,2.33
2018-07-19T08:13:25.028Z,2.37
2018-07-19T08:15:53.415Z,2.00
2018-07-19T08:18:21.752Z,2.10
2018-07-19T08:20:50.074Z,2.30
2018-07-19T08:23:18.429Z,2.17
2018-07-19T08:25:46.786Z,2.10
2018-07-19T08:28:15.143Z,2.10
2018-07-19T08:30:43.492Z,2.10
2018-07-19T08:33:11.863Z,2.00
2018-07-19T08:35:40.195Z,2.17
2018-07-19T08:38:08.891Z,2.23
2018-07-19T08:40:37.226Z,2.17
2018-07-19T08:43:05.619Z,2.10
2018-07-19T08:45:33.956Z,2.00
2018-07-19T08:48:02.332Z,2.20
2018-07-19T08:50:30.679Z,2.17
2018-07-19T08:52:59.051Z,2.30
2018-07-19T08:55:27.629Z,2.50
2018-07-19T08:57:56.031Z,2.40
2018-07-19T09:00:24.408Z,2.53
2018-07-19T09:02:52.751Z,2.37
2018-07-19T09:05:21.159Z,1.90
2018-07-19T09:07:49.532Z,2.00
2018-07-19T09:10:18.109Z,2.43
2018-07-19T09:12:46.552Z,2.20
2018-07-19T09:15:14.924Z,2.50
2018-07-19T09:17:43.313Z,2.40
2018-07-19T09:20:11.643Z,2.27
2018-07-19T09:22:40.241Z,2.27
2018-07-19T09:25:08.689Z,2.37
2018-07-19T09:27:37.040Z,2.27
2018-07-19T09:30:06.504Z,2.30
2018-07-19T09:32:34.900Z,1.90
2018-07-19T09:35:02.950Z,2.50
2018-07-19T09:37:31.280Z,2.30
2018-07-19T09:39:59.625Z,2.30
2018-07-19T09:42:28.897Z,2.20
2018-07-19T09:44:57.513Z,2.30
2018-07-19T09:47:25.868Z,2.10
2018-07-19T09:49:55.748Z,2.47
2018-07-19T09:52:24.093Z,2.70
2018-07-19T09:54:54.732Z,2.20
2018-07-19T09:57:23.096Z,3.60
2018-07-19T09:59:51.527Z,5.20
2018-07-19T10:02:20.037Z,3.80
2018-07-19T10:04:48.408Z,2.30
2018-07-19T10:07:16.480Z,3.20
2018-07-19T10:09:44.869Z,2.37
2018-07-19T10:12:12.933Z,2.33
2018-07-19T10:14:41.291Z,2.70
2018-07-19T10:17:09.636Z,2.70
2018-07-19T10:19:38.002Z,3.60
2018-07-19T10:22:06.357Z,2.83
2018-07-19T10:24:34.725Z,3.70
2018-07-19T10:27:03.059Z,2.70
2018-07-19T10:29:31.421Z,3.27
2018-07-19T10:31:59.858Z,2.47
2018-07-19T10:34:28.243Z,2.60
2018-07-19T10:36:56.524Z,2.43
2018-07-19T10:39:24.619Z,2.40
2018-07-19T10:41:52.963Z,2.60
2018-07-19T10:44:21.347Z,2.40
2018-07-19T10:46:49.675Z,2.77
2018-07-19T10:49:18.013Z,2.65
2018-07-19T10:51:46.449Z,2.30
2018-07-19T10:54:14.739Z,2.67
2018-07-19T10:56:43.135Z,2.30
2018-07-19T10:59:11.460Z,2.30
2018-07-19T11:01:39.827Z,2.40
2018-07-19T11:04:07.879Z,2.30
2018-07-19T11:06:36.239Z,2.55
2018-07-19T11:09:07.328Z,2.50
2018-07-19T11:11:35.411Z,2.72
2018-07-19T11:14:03.764Z,2.40
2018-07-19T11:16:32.115Z,2.65
2018-07-19T11:19:00.443Z,2.55
2018-07-19T11:21:28.804Z,2.37
2018-07-19T11:23:57.119Z,2.58
2018-07-19T11:26:25.485Z,2.67
2018-07-19T11:28:53.530Z,2.72
2018-07-19T11:31:21.871Z,2.85
2018-07-19T11:33:49.918Z,2.77
2018-07-19T11:36:18.259Z,2.90
2018-07-19T11:38:46.576Z,3.08
2018-07-19T11:41:14.997Z,2.90
2018-07-19T11:43:43.331Z,2.60
2018-07-19T11:46:11.683Z,3.00
2018-07-19T11:48:39.739Z,2.70
2018-07-19T11:51:08.091Z,3.00
2018-07-19T11:53:36.499Z,2.90
2018-07-19T11:56:04.907Z,2.72
2018-07-19T11:58:32.977Z,3.05
2018-07-19T12:01:01.327Z,3.02
2018-07-19T12:03:29.655Z,2.80
2018-07-19T12:05:58.014Z,2.50
2018-07-19T12:08:26.062Z,2.62
2018-07-19T12:10:54.404Z,2.92
2018-07-19T12:13:22.783Z,2.70
2018-07-19T12:15:51.165Z,2.60
2018-07-19T12:18:19.487Z,2.65
2018-07-19T12:20:47.827Z,2.70
2018-07-19T12:23:16.156Z,2.70
2018-07-19T12:25:44.239Z,2.72
2018-07-19T12:28:12.290Z,2.50
2018-07-19T12:30:40.623Z,2.67
2018-07-19T12:33:08.943Z,2.65
2018-07-19T12:35:37.344Z,2.65
2018-07-19T12:38:05.427Z,2.80
2018-07-19T12:40:33.643Z,2.58
2018-07-19T12:43:02.097Z,3.10
2018-07-19T12:45:30.430Z,2.75
2018-07-19T12:47:58.788Z,2.77
2018-07-19T12:50:27.103Z,3.02
2018-07-19T12:52:55.442Z,2.70
2018-07-19T12:55:23.839Z,2.87
2018-07-19T12:57:52.208Z,2.60
2018-07-19T13:00:20.547Z,3.00
2018-07-19T13:02:48.900Z,2.80
2018-07-19T13:05:17.303Z,2.67
2018-07-19T13:07:45.628Z,2.70
2018-07-19T13:10:13.963Z,2.50
2018-07-19T13:12:42.339Z,2.80
2018-07-19T13:15:10.663Z,2.80
2018-07-19T13:17:39.028Z,2.77
2018-07-19T13:20:07.363Z,2.77
2018-07-19T13:22:35.439Z,2.85
2018-07-19T13:25:03.516Z,2.67
2018-07-19T13:27:31.589Z,2.60
2018-07-19T13:29:59.908Z,2.95
2018-07-19T13:32:28.292Z,2.85
2018-07-19T13:34:56.610Z,2.37
2018-07-19T13:37:24.754Z,2.75
2018-07-19T13:39:53.063Z,2.98
2018-07-19T13:42:21.186Z,2.70
2018-07-19T13:44:50.022Z,2.72
2018-07-19T13:47:18.375Z,2.85
2018-07-19T13:49:46.723Z,2.65
2018-07-19T13:52:15.530Z,2.70
2018-07-19T13:54:49.164Z,2.60
2018-07-19T13:57:17.544Z,2.80
2018-07-19T13:59:45.899Z,2.62
2018-07-19T14:02:14.643Z,2.95
2018-07-19T14:04:42.963Z,2.90
2018-07-19T14:07:11.303Z,2.90
2018-07-19T14:09:39.620Z,2.70
2018-07-19T14:12:07.980Z,2.92
2018-07-19T14:14:37.136Z,2.72
2018-07-19T14:17:05.484Z,2.77
2018-07-19T14:19:33.823Z,2.80
2018-07-19T14:22:02.195Z,2.60
2018-07-19T14:24:30.527Z,2.65
2018-07-19T14:26:58.867Z,2.52
2018-07-19T14:29:27.181Z,2.70
2018-07-19T14:31:55.546Z,2.75
2018-07-19T14:34:23.881Z,2.67
2018-07-19T14:36:51.958Z,2.90
2018-07-19T14:39:20.032Z,2.75
2018-07-19T14:41:48.088Z,2.77
2018-07-19T14:44:16.427Z,2.62
2018-07-19T14:46:44.752Z,2.70
2018-07-19T14:49:12.830Z,2.80
2018-07-19T14:51:40.887Z,2.70
2018-07-19T14:54:09.232Z,2.70
2018-07-19T14:56:37.579Z,2.85
2018-07-19T14:59:06.022Z,2.77
2018-07-19T15:01:34.359Z,3.00
2018-07-19T15:04:02.713Z,2.75
2018-07-19T15:06:31.026Z,2.90
2018-07-19T15:08:59.374Z,3.05
2018-07-19T15:11:27.684Z,2.80
2018-07-19T15:13:56.043Z,2.95
2018-07-19T15:16:24.384Z,3.33
2018-07-19T15:18:52.473Z,2.87
2018-07-19T15:21:20.808Z,3.10
2018-07-19T15:23:49.163Z,2.80
2018-07-19T15:26:17.487Z,3.10
2018-07-19T15:28:45.845Z,2.87
2018-07-19T15:31:14.183Z,2.83
2018-07-19T15:33:42.543Z,2.70
2018-07-19T15:36:10.606Z,2.98
2018-07-19T15:38:38.987Z,2.60
2018-07-19T15:41:07.070Z,2.72
2018-07-19T15:43:35.143Z,2.83
2018-07-19T15:46:03.472Z,2.85
2018-07-19T15:48:31.819Z,2.95
2018-07-19T15:51:00.141Z,2.60
2018-07-19T15:53:28.487Z,2.62
2018-07-19T15:55:56.811Z,2.87
2018-07-19T15:58:25.172Z,2.75
2018-07-19T16:00:53.498Z,2.60
2018-07-19T16:03:21.839Z,2.75
2018-07-19T16:05:50.163Z,2.52
2018-07-19T16:08:18.512Z,3.00
2018-07-19T16:10:46.835Z,2.62
2018-07-19T16:13:15.191Z,2.45
2018-07-19T16:15:43.246Z,2.45
2018-07-19T16:18:11.590Z,3.00
2018-07-19T16:20:39.952Z,2.80
2018-07-19T16:23:08.287Z,2.55
2018-07-19T16:25:36.603Z,2.80
2018-07-19T16:28:04.988Z,2.60
2018-07-19T16:30:33.315Z,2.67
2018-07-19T16:33:01.652Z,2.60
2018-07-19T16:35:30.010Z,2.55
2018-07-19T16:37:58.348Z,2.60
2018-07-19T16:40:26.695Z,2.58
2018-07-19T16:42:55.065Z,2.67
2018-07-19T16:45:23.405Z,2.50
2018-07-19T16:47:51.455Z,2.75
2018-07-19T16:50:19.795Z,2.52
2018-07-19T16:52:48.125Z,2.50
2018-07-19T16:55:16.507Z,2.62
2018-07-19T16:57:44.856Z,2.52
2018-07-19T17:00:13.271Z,2.47
2018-07-19T17:02:41.334Z,2.67
2018-07-19T17:05:09.696Z,2.55
2018-07-19T17:07:38.031Z,2.40
2018-07-19T17:10:06.708Z,2.50
2018-07-19T17:12:35.265Z,2.95
2018-07-19T17:15:03.987Z,2.60
2018-07-19T17:17:32.321Z,2.47
2018-07-19T17:20:00.736Z,2.60
2018-07-19T17:22:29.057Z,2.40
2018-07-19T17:24:57.407Z,2.60
2018-07-19T17:27:25.754Z,2.62
2018-07-19T17:29:54.087Z,2.60
2018-07-19T17:32:22.429Z,2.47
2018-07-19T17:34:50.525Z,2.90
2018-07-19T17:37:18.873Z,2.80
2018-07-19T17:39:46.995Z,2.60
2018-07-19T17:42:15.364Z,2.90
2018-07-19T17:44:43.737Z,2.70
2018-07-19T17:47:12.176Z,2.27
2018-07-19T17:49:40.542Z,2.85
2018-07-19T17:52:08.896Z,2.70
2018-07-19T17:54:37.319Z,2.75
2018-07-19T17:57:05.673Z,2.33
2018-07-19T17:59:33.823Z,2.90
2018-07-19T18:02:02.149Z,2.80
2018-07-19T18:04:30.518Z,3.17
2018-07-19T18:06:58.860Z,2.60
2018-07-19T18:09:27.231Z,2.80
2018-07-19T18:11:55.565Z,2.72
2018-07-19T18:14:23.937Z,3.05
2018-07-19T18:16:52.324Z,2.50
2018-07-19T18:19:20.655Z,2.98
2018-07-19T18:21:48.996Z,3.30
2018-07-19T18:24:17.373Z,2.75
2018-07-19T18:26:45.712Z,3.00
2018-07-19T18:29:14.045Z,2.90
2018-07-19T18:31:42.413Z,2.77
2018-07-19T18:34:10.468Z,2.90
2018-07-19T18:36:38.847Z,2.83
2018-07-19T18:39:09.504Z,2.77
2018-07-19T18:41:37.967Z,2.80
2018-07-19T18:44:06.374Z,2.85
2018-07-19T18:46:34.724Z,2.70
2018-07-19T18:49:03.049Z,2.47
2018-07-19T18:51:31.409Z,3.08
2018-07-19T18:53:59.792Z,2.75
2018-07-19T18:56:28.303Z,3.10
2018-07-19T18:58:56.676Z,3.30
2018-07-19T19:01:25.069Z,3.20
2018-07-19T19:03:53.409Z,3.20
2018-07-19T19:06:22.110Z,3.00
2018-07-19T19:08:50.464Z,3.20
2018-07-19T19:11:18.561Z,3.57
2018-07-19T19:13:46.983Z,3.00
2018-07-19T19:16:15.355Z,2.98
2018-07-19T19:18:43.709Z,3.20
2018-07-19T19:21:12.064Z,2.95
2018-07-19T19:23:40.440Z,3.27
2018-07-19T19:26:08.805Z,3.47
2018-07-19T19:28:36.861Z,3.80
2018-07-19T19:31:05.223Z,3.70
2018-07-19T19:33:33.553Z,3.35
2018-07-19T19:36:01.914Z,3.80
2018-07-19T19:38:30.259Z,3.77
2018-07-19T19:40:58.608Z,3.35
2018-07-19T19:43:26.920Z,3.60
2018-07-19T19:45:55.285Z,3.42
2018-07-19T19:48:23.610Z,3.65
2018-07-19T19:50:52.016Z,3.45
2018-07-19T19:53:20.335Z,3.35
2018-07-19T19:55:48.667Z,4.10
2018-07-19T19:58:17.024Z,3.27
2018-07-19T20:00:45.412Z,3.65
2018-07-19T20:03:13.842Z,3.92
2018-07-19T20:05:42.229Z,3.52
2018-07-19T20:08:10.545Z,3.60
2018-07-19T20:10:38.896Z,3.30
2018-07-19T20:13:07.235Z,3.25
2018-07-19T20:15:35.580Z,3.50
2018-07-19T20:18:03.904Z,3.70
2018-07-19T20:20:33.260Z,3.90
2018-07-19T20:23:05.127Z,3.90
2018-07-19T20:25:35.684Z,3.70
2018-07-19T20:28:05.960Z,3.70
2018-07-19T20:30:34.748Z,4.67
2018-07-19T20:33:03.166Z,3.50
2018-07-19T20:35:31.499Z,4.03
2018-07-19T20:37:59.843Z,3.80
2018-07-19T20:40:28.164Z,3.87
2018-07-19T20:42:56.632Z,3.93
2018-07-19T20:45:24.980Z,3.47
2018-07-19T20:47:53.352Z,4.10
2018-07-19T20:50:21.731Z,4.10
2018-07-19T20:52:49.966Z,3.93
2018-07-19T20:55:18.325Z,4.23
2018-07-19T20:57:46.704Z,4.00
2018-07-19T21:00:15.800Z,4.00
2018-07-19T21:02:44.211Z,3.90
2018-07-19T21:05:12.644Z,4.20
2018-07-19T21:07:40.990Z,4.10
2018-07-19T21:10:09.088Z,3.70
2018-07-19T21:12:37.416Z,3.90
2018-07-19T21:15:06.295Z,4.20
2018-07-19T21:17:34.877Z,3.80
2018-07-19T21:20:03.284Z,4.17
2018-07-19T21:22:31.692Z,4.13
2018-07-19T21:24:59.802Z,3.93
2018-07-19T21:27:28.159Z,4.17
2018-07-19T21:29:56.496Z,4.30
2018-07-19T21:32:24.848Z,4.43
2018-07-19T21:34:53.183Z,4.27
2018-07-19T21:37:21.547Z,4.43
2018-07-19T21:39:49.598Z,4.33
2018-07-19T21:42:17.964Z,4.13
2018-07-19T21:44:46.314Z,4.40
2018-07-19T21:47:14.672Z,3.97
2018-07-19T21:49:43.025Z,4.20
2018-07-19T21:52:11.380Z,4.40
2018-07-19T21:54:39.750Z,4.20
2018-07-19T21:57:08.140Z,4.20
2018-07-19T21:59:36.468Z,4.50
2018-07-19T22:02:04.874Z,4.60
2018-07-19T22:04:33.209Z,4.60
2018-07-19T22:07:01.304Z,4.50
2018-07-19T22:09:29.663Z,4.87
2018-07-19T22:11:58.028Z,4.67
2018-07-19T22:14:26.384Z,4.20
2018-07-19T22:16:54.751Z,4.60
2018-07-19T22:19:23.113Z,4.53
2018-07-19T22:21:51.431Z,4.40
2018-07-19T22:24:19.810Z,4.50
2018-07-19T22:26:48.131Z,4.60
2018-07-19T22:29:16.487Z,4.50
2018-07-19T22:31:44.813Z,4.73
2018-07-19T22:34:13.172Z,4.87
2018-07-19T22:36:41.496Z,4.23
2018-07-19T22:39:11.212Z,4.40
2018-07-19T22:41:39.833Z,4.80
2018-07-19T22:44:07.925Z,5.20
2018-07-19T22:46:36.613Z,4.63
2018-07-19T22:49:05.226Z,4.90
2018-07-19T22:51:33.660Z,5.33
2018-07-19T22:54:02.076Z,4.90
2018-07-19T22:56:30.423Z,4.90
2018-07-19T22:58:58.536Z,4.90
2018-07-19T23:01:26.891Z,4.53
2018-07-19T23:03:55.558Z,4.60
2018-07-19T23:06:23.646Z,4.30
2018-07-19T23:08:52.047Z,4.60
2018-07-19T23:11:20.396Z,4.63
2018-07-19T23:13:48.772Z,4.87
2018-07-19T23:16:17.175Z,4.27
2018-07-19T23:18:45.627Z,5.00
2018-07-19T23:21:14.021Z,4.20
2018-07-19T23:23:42.404Z,4.53
2018-07-19T23:26:10.478Z,4.40
2018-07-19T23:28:38.859Z,4.00
2018-07-19T23:31:07.246Z,4.13
2018-07-19T23:33:35.641Z,4.17
2018-07-19T23:36:07.765Z,4.43
2018-07-19T23:39:39.309Z,4.03
2018-07-19T23:42:14.603Z,4.07
2018-07-19T23:44:48.352Z,4.27
2018-07-19T23:47:20.511Z,4.20
2018-07-19T23:49:48.872Z,4.30
2018-07-19T23:52:17.260Z,4.40
2018-07-19T23:54:45.632Z,4.33
2018-07-19T23:57:14.027Z,4.37
2018-07-19T23:59:42.419Z,4.83
